sensor_id;sensor_type;location;lat;lon;timestamp;P1;durP1;ratioP1;P2;durP2;ratioP2
12129;SDS011;6128;59.340;18.040;2023-08-07T00:01:04;23.17;;;20.87;;
12129;SDS011;6128;59.340;18.040;2023-08-07T00:03:31;17.20;;;15.80;;
12129;SDS011;6128;59.340;18.040;2023-08-07T00:05:58;20.10;;;18.50;;
12129;SDS011;6128;59.340;18.040;2023-08-07T00:08:25;21.53;;;19.43;;
12129;SDS011;6128;59.340;18.040;2023-08-07T00:10:52;20.93;;;19.23;;
12129;SDS011;6128;59.340;18.040;2023-08-07T00:13:19;23.50;;;21.30;;
12129;SDS011;6128;59.340;18.040;2023-08-07T00:15:46;21.00;;;19.27;;
12129;SDS011;6128;59.340;18.040;2023-08-07T00:18:15;20.67;;;18.67;;
12129;SDS011;6128;59.340;18.040;2023-08-07T00:20:42;22.63;;;20.70;;
12129;SDS011;6128;59.340;18.040;2023-08-07T00:23:09;21.20;;;19.50;;
12129;SDS011;6128;59.340;18.040;2023-08-07T00:25:36;22.93;;;20.70;;
12129;SDS011;6128;59.340;18.040;2023-08-07T00:28:03;23.07;;;21.07;;
12129;SDS011;6128;59.340;18.040;2023-08-07T00:30:30;20.97;;;18.93;;
12129;SDS011;6128;59.340;18.040;2023-08-07T00:32:57;22.13;;;20.23;;
12129;SDS011;6128;59.340;18.040;2023-08-07T00:35:26;22.63;;;20.77;;
12129;SDS011;6128;59.340;18.040;2023-08-07T00:37:53;24.10;;;21.80;;
12129;SDS011;6128;59.340;18.040;2023-08-07T00:40:20;24.23;;;22.20;;
12129;SDS011;6128;59.340;18.040;2023-08-07T00:42:47;23.33;;;21.43;;
12129;SDS011;6128;59.340;18.040;2023-08-07T00:45:14;22.13;;;20.20;;
12129;SDS011;6128;59.340;18.040;2023-08-07T00:47:42;20.23;;;18.47;;
12129;SDS011;6128;59.340;18.040;2023-08-07T00:50:10;20.73;;;18.93;;
12129;SDS011;6128;59.340;18.040;2023-08-07T00:52:39;19.10;;;17.60;;
12129;SDS011;6128;59.340;18.040;2023-08-07T00:55:06;19.27;;;17.47;;
12129;SDS011;6128;59.340;18.040;2023-08-07T00:57:34;18.60;;;17.00;;
12129;SDS011;6128;59.340;18.040;2023-08-07T01:00:01;21.60;;;19.70;;
12129;SDS011;6128;59.340;18.040;2023-08-07T01:02:29;20.67;;;18.97;;
12129;SDS011;6128;59.340;18.040;2023-08-07T01:04:56;20.77;;;18.97;;
12129;SDS011;6128;59.340;18.040;2023-08-07T01:07:23;21.90;;;19.80;;
12129;SDS011;6128;59.340;18.040;2023-08-07T01:09:52;21.43;;;19.67;;
12129;SDS011;6128;59.340;18.040;2023-08-07T01:12:22;23.57;;;21.43;;
12129;SDS011;6128;59.340;18.040;2023-08-07T01:14:58;21.93;;;20.03;;
12129;SDS011;6128;59.340;18.040;2023-08-07T01:17:28;21.70;;;19.77;;
12129;SDS011;6128;59.340;18.040;2023-08-07T01:19:58;18.93;;;17.07;;
12129;SDS011;6128;59.340;18.040;2023-08-07T01:22:27;19.57;;;17.83;;
12129;SDS011;6128;59.340;18.040;2023-08-07T01:24:54;19.80;;;18.20;;
12129;SDS011;6128;59.340;18.040;2023-08-07T01:27:24;19.50;;;17.80;;
12129;SDS011;6128;59.340;18.040;2023-08-07T01:30:01;20.07;;;18.00;;
12129;SDS011;6128;59.340;18.040;2023-08-07T01:32:35;20.20;;;18.17;;
12129;SDS011;6128;59.340;18.040;2023-08-07T01:35:10;18.67;;;16.97;;
12129;SDS011;6128;59.340;18.040;2023-08-07T01:37:41;17.83;;;16.20;;
12129;SDS011;6128;59.340;18.040;2023-08-07T01:40:09;17.80;;;16.20;;
12129;SDS011;6128;59.340;18.040;2023-08-07T01:42:38;17.07;;;15.67;;
12129;SDS011;6128;59.340;18.040;2023-08-07T01:45:06;18.13;;;16.53;;
12129;SDS011;6128;59.340;18.040;2023-08-07T01:47:33;16.30;;;14.87;;
12129;SDS011;6128;59.340;18.040;2023-08-07T01:50:01;16.83;;;15.37;;
12129;SDS011;6128;59.340;18.040;2023-08-07T01:52:29;16.80;;;15.23;;
12129;SDS011;6128;59.340;18.040;2023-08-07T01:54:58;15.33;;;14.13;;
12129;SDS011;6128;59.340;18.040;2023-08-07T01:57:25;15.10;;;13.90;;
12129;SDS011;6128;59.340;18.040;2023-08-07T01:59:52;16.23;;;14.83;;
12129;SDS011;6128;59.340;18.040;2023-08-07T02:02:19;15.37;;;14.07;;
12129;SDS011;6128;59.340;18.040;2023-08-07T02:04:46;15.10;;;13.80;;
12129;SDS011;6128;59.340;18.040;2023-08-07T02:07:13;14.97;;;13.70;;
12129;SDS011;6128;59.340;18.040;2023-08-07T02:09:40;16.53;;;15.13;;
12129;SDS011;6128;59.340;18.040;2023-08-07T02:12:09;14.80;;;13.53;;
12129;SDS011;6128;59.340;18.040;2023-08-07T02:14:36;15.53;;;14.23;;
12129;SDS011;6128;59.340;18.040;2023-08-07T02:17:04;14.33;;;13.23;;
12129;SDS011;6128;59.340;18.040;2023-08-07T02:19:31;14.50;;;13.40;;
12129;SDS011;6128;59.340;18.040;2023-08-07T02:21:58;14.03;;;12.93;;
12129;SDS011;6128;59.340;18.040;2023-08-07T02:24:27;14.27;;;13.10;;
12129;SDS011;6128;59.340;18.040;2023-08-07T02:26:54;14.60;;;13.37;;
12129;SDS011;6128;59.340;18.040;2023-08-07T02:29:23;13.30;;;12.40;;
12129;SDS011;6128;59.340;18.040;2023-08-07T02:31:50;13.10;;;12.10;;
12129;SDS011;6128;59.340;18.040;2023-08-07T02:34:17;13.10;;;12.00;;
12129;SDS011;6128;59.340;18.040;2023-08-07T02:36:44;13.90;;;12.80;;
12129;SDS011;6128;59.340;18.040;2023-08-07T02:39:13;12.33;;;11.43;;
12129;SDS011;6128;59.340;18.040;2023-08-07T02:41:40;12.70;;;11.63;;
12129;SDS011;6128;59.340;18.040;2023-08-07T02:44:07;12.30;;;11.30;;
12129;SDS011;6128;59.340;18.040;2023-08-07T02:46:36;12.77;;;11.77;;
12129;SDS011;6128;59.340;18.040;2023-08-07T02:49:03;12.80;;;11.83;;
12129;SDS011;6128;59.340;18.040;2023-08-07T02:51:30;12.63;;;11.70;;
12129;SDS011;6128;59.340;18.040;2023-08-07T02:53:58;12.80;;;11.70;;
12129;SDS011;6128;59.340;18.040;2023-08-07T02:56:25;12.30;;;11.40;;
12129;SDS011;6128;59.340;18.040;2023-08-07T02:58:52;11.80;;;10.90;;
12129;SDS011;6128;59.340;18.040;2023-08-07T03:01:19;12.13;;;11.33;;
12129;SDS011;6128;59.340;18.040;2023-08-07T03:03:48;11.90;;;11.00;;
12129;SDS011;6128;59.340;18.040;2023-08-07T03:06:15;10.67;;;9.87;;
12129;SDS011;6128;59.340;18.040;2023-08-07T03:08:44;11.03;;;10.23;;
12129;SDS011;6128;59.340;18.040;2023-08-07T03:11:11;11.67;;;10.80;;
12129;SDS011;6128;59.340;18.040;2023-08-07T03:13:38;10.67;;;9.83;;
12129;SDS011;6128;59.340;18.040;2023-08-07T03:16:07;11.43;;;10.60;;
12129;SDS011;6128;59.340;18.040;2023-08-07T03:18:34;10.60;;;9.60;;
12129;SDS011;6128;59.340;18.040;2023-08-07T03:21:03;10.70;;;9.90;;
12129;SDS011;6128;59.340;18.040;2023-08-07T03:23:30;9.77;;;9.07;;
12129;SDS011;6128;59.340;18.040;2023-08-07T03:26:04;9.23;;;8.63;;
12129;SDS011;6128;59.340;18.040;2023-08-07T03:28:32;8.57;;;7.97;;
12129;SDS011;6128;59.340;18.040;2023-08-07T03:31:00;8.30;;;7.80;;
12129;SDS011;6128;59.340;18.040;2023-08-07T03:33:28;7.93;;;7.33;;
12129;SDS011;6128;59.340;18.040;2023-08-07T03:35:55;7.20;;;6.77;;
12129;SDS011;6128;59.340;18.040;2023-08-07T03:38:24;6.63;;;6.23;;
12129;SDS011;6128;59.340;18.040;2023-08-07T03:40:52;6.90;;;6.40;;
12129;SDS011;6128;59.340;18.040;2023-08-07T03:43:19;6.97;;;6.47;;
12129;SDS011;6128;59.340;18.040;2023-08-07T03:45:47;7.27;;;6.67;;
12129;SDS011;6128;59.340;18.040;2023-08-07T03:48:14;7.07;;;6.47;;
12129;SDS011;6128;59.340;18.040;2023-08-07T03:50:41;6.90;;;6.40;;
12129;SDS011;6128;59.340;18.040;2023-08-07T03:53:08;7.40;;;6.90;;
12129;SDS011;6128;59.340;18.040;2023-08-07T03:55:37;7.77;;;7.23;;
12129;SDS011;6128;59.340;18.040;2023-08-07T03:58:04;8.23;;;7.47;;
12129;SDS011;6128;59.340;18.040;2023-08-07T04:00:31;8.57;;;7.80;;
12129;SDS011;6128;59.340;18.040;2023-08-07T04:02:59;8.10;;;7.50;;
12129;SDS011;6128;59.340;18.040;2023-08-07T04:05:27;8.27;;;7.57;;
12129;SDS011;6128;59.340;18.040;2023-08-07T04:07:54;9.03;;;8.33;;
12129;SDS011;6128;59.340;18.040;2023-08-07T04:10:21;9.63;;;8.80;;
12129;SDS011;6128;59.340;18.040;2023-08-07T04:12:50;8.50;;;7.90;;
12129;SDS011;6128;59.340;18.040;2023-08-07T04:15:17;9.20;;;8.50;;
12129;SDS011;6128;59.340;18.040;2023-08-07T04:17:44;9.60;;;8.90;;
12129;SDS011;6128;59.340;18.040;2023-08-07T04:20:11;10.60;;;9.73;;
12129;SDS011;6128;59.340;18.040;2023-08-07T04:22:39;11.63;;;10.67;;
12129;SDS011;6128;59.340;18.040;2023-08-07T04:25:06;10.60;;;9.80;;
12129;SDS011;6128;59.340;18.040;2023-08-07T04:27:34;11.70;;;10.80;;
12129;SDS011;6128;59.340;18.040;2023-08-07T04:30:03;11.47;;;10.47;;
12129;SDS011;6128;59.340;18.040;2023-08-07T04:32:31;11.17;;;10.33;;
12129;SDS011;6128;59.340;18.040;2023-08-07T04:34:58;11.77;;;10.73;;
12129;SDS011;6128;59.340;18.040;2023-08-07T04:37:25;12.70;;;11.80;;
12129;SDS011;6128;59.340;18.040;2023-08-07T04:39:55;13.37;;;12.20;;
12129;SDS011;6128;59.340;18.040;2023-08-07T04:42:22;13.00;;;12.10;;
12129;SDS011;6128;59.340;18.040;2023-08-07T04:44:49;12.90;;;11.97;;
12129;SDS011;6128;59.340;18.040;2023-08-07T04:47:18;12.80;;;11.70;;
12129;SDS011;6128;59.340;18.040;2023-08-07T04:49:45;13.80;;;12.68;;
12129;SDS011;6128;59.340;18.040;2023-08-07T04:52:13;14.17;;;12.87;;
12129;SDS011;6128;59.340;18.040;2023-08-07T04:54:40;13.77;;;12.83;;
12129;SDS011;6128;59.340;18.040;2023-08-07T04:57:07;15.20;;;13.77;;
12129;SDS011;6128;59.340;18.040;2023-08-07T04:59:34;15.80;;;14.57;;
12129;SDS011;6128;59.340;18.040;2023-08-07T05:02:02;15.93;;;14.60;;
12129;SDS011;6128;59.340;18.040;2023-08-07T05:04:30;17.03;;;15.53;;
12129;SDS011;6128;59.340;18.040;2023-08-07T05:06:58;15.70;;;14.30;;
12129;SDS011;6128;59.340;18.040;2023-08-07T05:09:25;15.50;;;14.30;;
12129;SDS011;6128;59.340;18.040;2023-08-07T05:11:52;16.37;;;14.93;;
12129;SDS011;6128;59.340;18.040;2023-08-07T05:14:20;16.48;;;15.05;;
12129;SDS011;6128;59.340;18.040;2023-08-07T05:16:47;17.43;;;15.87;;
12129;SDS011;6128;59.340;18.040;2023-08-07T05:19:14;20.53;;;18.60;;
12129;SDS011;6128;59.340;18.040;2023-08-07T05:21:43;19.73;;;17.93;;
12129;SDS011;6128;59.340;18.040;2023-08-07T05:24:15;23.10;;;20.90;;
12129;SDS011;6128;59.340;18.040;2023-08-07T05:26:45;20.40;;;18.67;;
12129;SDS011;6128;59.340;18.040;2023-08-07T05:29:12;21.07;;;19.37;;
12129;SDS011;6128;59.340;18.040;2023-08-07T05:31:39;23.00;;;21.17;;
12129;SDS011;6128;59.340;18.040;2023-08-07T05:34:06;24.60;;;22.40;;
12129;SDS011;6128;59.340;18.040;2023-08-07T05:36:34;23.42;;;21.42;;
12129;SDS011;6128;59.340;18.040;2023-08-07T05:39:03;22.07;;;20.07;;
12129;SDS011;6128;59.340;18.040;2023-08-07T05:41:30;18.43;;;16.80;;
12129;SDS011;6128;59.340;18.040;2023-08-07T05:43:57;16.37;;;15.07;;
12129;SDS011;6128;59.340;18.040;2023-08-07T05:46:24;14.47;;;13.37;;
12129;SDS011;6128;59.340;18.040;2023-08-07T05:48:52;14.83;;;13.83;;
12129;SDS011;6128;59.340;18.040;2023-08-07T05:51:19;14.65;;;13.35;;
12129;SDS011;6128;59.340;18.040;2023-08-07T05:53:46;13.63;;;12.73;;
12129;SDS011;6128;59.340;18.040;2023-08-07T05:56:15;13.93;;;12.73;;
12129;SDS011;6128;59.340;18.040;2023-08-07T05:58:43;13.60;;;12.40;;
12129;SDS011;6128;59.340;18.040;2023-08-07T06:01:10;14.25;;;13.05;;
12129;SDS011;6128;59.340;18.040;2023-08-07T06:03:39;15.32;;;13.90;;
12129;SDS011;6128;59.340;18.040;2023-08-07T06:06:06;14.45;;;13.25;;
12129;SDS011;6128;59.340;18.040;2023-08-07T06:08:33;14.57;;;13.48;;
12129;SDS011;6128;59.340;18.040;2023-08-07T06:11:01;14.40;;;13.13;;
12129;SDS011;6128;59.340;18.040;2023-08-07T06:13:31;13.63;;;12.63;;
12129;SDS011;6128;59.340;18.040;2023-08-07T06:15:58;13.88;;;12.60;;
12129;SDS011;6128;59.340;18.040;2023-08-07T06:18:25;14.02;;;12.63;;
12129;SDS011;6128;59.340;18.040;2023-08-07T06:20:52;12.88;;;11.65;;
12129;SDS011;6128;59.340;18.040;2023-08-07T06:23:19;12.38;;;11.25;;
12129;SDS011;6128;59.340;18.040;2023-08-07T06:25:47;12.30;;;11.23;;
12129;SDS011;6128;59.340;18.040;2023-08-07T06:28:14;12.18;;;10.98;;
12129;SDS011;6128;59.340;18.040;2023-08-07T06:30:42;11.93;;;11.00;;
12129;SDS011;6128;59.340;18.040;2023-08-07T06:33:10;11.52;;;10.52;;
12129;SDS011;6128;59.340;18.040;2023-08-07T06:35:37;10.00;;;9.10;;
12129;SDS011;6128;59.340;18.040;2023-08-07T06:38:04;11.02;;;9.52;;
12129;SDS011;6128;59.340;18.040;2023-08-07T06:40:31;11.00;;;9.95;;
12129;SDS011;6128;59.340;18.040;2023-08-07T06:43:01;10.25;;;9.25;;
12129;SDS011;6128;59.340;18.040;2023-08-07T06:45:28;11.45;;;10.30;;
12129;SDS011;6128;59.340;18.040;2023-08-07T06:47:56;11.23;;;10.15;;
12129;SDS011;6128;59.340;18.040;2023-08-07T06:50:24;11.05;;;9.95;;
12129;SDS011;6128;59.340;18.040;2023-08-07T06:52:51;11.88;;;10.68;;
12129;SDS011;6128;59.340;18.040;2023-08-07T06:55:19;11.20;;;10.10;;
12129;SDS011;6128;59.340;18.040;2023-08-07T06:57:46;10.27;;;9.35;;
12129;SDS011;6128;59.340;18.040;2023-08-07T07:00:14;9.65;;;8.75;;
12129;SDS011;6128;59.340;18.040;2023-08-07T07:02:42;9.98;;;8.85;;
12129;SDS011;6128;59.340;18.040;2023-08-07T07:05:10;10.25;;;8.85;;
12129;SDS011;6128;59.340;18.040;2023-08-07T07:07:38;9.50;;;8.57;;
12129;SDS011;6128;59.340;18.040;2023-08-07T07:10:05;8.88;;;8.18;;
12129;SDS011;6128;59.340;18.040;2023-08-07T07:12:33;10.95;;;8.38;;
12129;SDS011;6128;59.340;18.040;2023-08-07T07:15:00;9.70;;;8.88;;
12129;SDS011;6128;59.340;18.040;2023-08-07T07:17:27;9.73;;;8.68;;
12129;SDS011;6128;59.340;18.040;2023-08-07T07:19:54;10.23;;;8.95;;
12129;SDS011;6128;59.340;18.040;2023-08-07T07:22:23;9.15;;;8.45;;
12129;SDS011;6128;59.340;18.040;2023-08-07T07:24:51;9.80;;;8.95;;
12129;SDS011;6128;59.340;18.040;2023-08-07T07:27:18;9.25;;;8.43;;
12129;SDS011;6128;59.340;18.040;2023-08-07T07:29:45;9.35;;;8.55;;
12129;SDS011;6128;59.340;18.040;2023-08-07T07:32:12;10.18;;;9.13;;
12129;SDS011;6128;59.340;18.040;2023-08-07T07:34:39;10.43;;;9.38;;
12129;SDS011;6128;59.340;18.040;2023-08-07T07:37:06;10.60;;;9.63;;
12129;SDS011;6128;59.340;18.040;2023-08-07T07:39:35;10.90;;;10.10;;
12129;SDS011;6128;59.340;18.040;2023-08-07T07:42:03;10.65;;;9.85;;
12129;SDS011;6128;59.340;18.040;2023-08-07T07:44:30;10.60;;;9.73;;
12129;SDS011;6128;59.340;18.040;2023-08-07T07:46:58;11.82;;;10.55;;
12129;SDS011;6128;59.340;18.040;2023-08-07T07:49:26;10.75;;;9.85;;
12129;SDS011;6128;59.340;18.040;2023-08-07T07:51:53;12.30;;;11.40;;
12129;SDS011;6128;59.340;18.040;2023-08-07T07:54:20;11.00;;;10.15;;
12129;SDS011;6128;59.340;18.040;2023-08-07T07:56:49;10.93;;;10.10;;
12129;SDS011;6128;59.340;18.040;2023-08-07T07:59:16;12.38;;;11.25;;
12129;SDS011;6128;59.340;18.040;2023-08-07T08:01:43;10.77;;;9.88;;
12129;SDS011;6128;59.340;18.040;2023-08-07T08:04:10;10.52;;;9.82;;
12129;SDS011;6128;59.340;18.040;2023-08-07T08:06:37;10.82;;;9.73;;
12129;SDS011;6128;59.340;18.040;2023-08-07T08:09:06;10.65;;;9.75;;
12129;SDS011;6128;59.340;18.040;2023-08-07T08:11:35;11.38;;;10.35;;
12129;SDS011;6128;59.340;18.040;2023-08-07T08:14:03;10.20;;;9.27;;
12129;SDS011;6128;59.340;18.040;2023-08-07T08:16:30;10.88;;;10.02;;
12129;SDS011;6128;59.340;18.040;2023-08-07T08:18:57;10.20;;;9.40;;
12129;SDS011;6128;59.340;18.040;2023-08-07T08:21:24;10.95;;;9.95;;
12129;SDS011;6128;59.340;18.040;2023-08-07T08:23:51;9.50;;;8.80;;
12129;SDS011;6128;59.340;18.040;2023-08-07T08:26:18;10.18;;;9.20;;
12129;SDS011;6128;59.340;18.040;2023-08-07T08:28:45;10.43;;;9.52;;
12129;SDS011;6128;59.340;18.040;2023-08-07T08:31:14;11.23;;;10.05;;
12129;SDS011;6128;59.340;18.040;2023-08-07T08:33:41;10.82;;;9.95;;
12129;SDS011;6128;59.340;18.040;2023-08-07T08:36:08;11.07;;;10.18;;
12129;SDS011;6128;59.340;18.040;2023-08-07T08:38:35;11.32;;;10.52;;
12129;SDS011;6128;59.340;18.040;2023-08-07T08:41:02;11.38;;;10.30;;
12129;SDS011;6128;59.340;18.040;2023-08-07T08:43:31;13.13;;;11.75;;
12129;SDS011;6128;59.340;18.040;2023-08-07T08:46:01;11.25;;;10.30;;
12129;SDS011;6128;59.340;18.040;2023-08-07T08:48:32;10.18;;;9.23;;
12129;SDS011;6128;59.340;18.040;2023-08-07T08:51:01;10.50;;;9.50;;
12129;SDS011;6128;59.340;18.040;2023-08-07T08:53:30;10.55;;;9.65;;
12129;SDS011;6128;59.340;18.040;2023-08-07T08:55:58;9.93;;;9.10;;
12129;SDS011;6128;59.340;18.040;2023-08-07T08:58:27;10.70;;;9.90;;
12129;SDS011;6128;59.340;18.040;2023-08-07T09:00:55;9.45;;;8.75;;
12129;SDS011;6128;59.340;18.040;2023-08-07T09:03:22;9.85;;;9.05;;
12129;SDS011;6128;59.340;18.040;2023-08-07T09:05:53;9.18;;;8.45;;
12129;SDS011;6128;59.340;18.040;2023-08-07T09:08:24;9.40;;;8.55;;
12129;SDS011;6128;59.340;18.040;2023-08-07T09:10:54;9.32;;;8.40;;
12129;SDS011;6128;59.340;18.040;2023-08-07T09:13:22;9.07;;;8.40;;
12129;SDS011;6128;59.340;18.040;2023-08-07T09:15:51;9.60;;;8.70;;
12129;SDS011;6128;59.340;18.040;2023-08-07T09:18:18;9.65;;;8.73;;
12129;SDS011;6128;59.340;18.040;2023-08-07T09:20:46;9.90;;;9.10;;
12129;SDS011;6128;59.340;18.040;2023-08-07T09:23:15;9.50;;;8.60;;
12129;SDS011;6128;59.340;18.040;2023-08-07T09:25:42;10.25;;;9.27;;
12129;SDS011;6128;59.340;18.040;2023-08-07T09:28:10;10.23;;;9.30;;
12129;SDS011;6128;59.340;18.040;2023-08-07T09:30:37;10.30;;;9.27;;
12129;SDS011;6128;59.340;18.040;2023-08-07T09:33:04;10.55;;;9.45;;
12129;SDS011;6128;59.340;18.040;2023-08-07T09:35:32;11.07;;;9.70;;
12129;SDS011;6128;59.340;18.040;2023-08-07T09:37:59;10.77;;;9.75;;
12129;SDS011;6128;59.340;18.040;2023-08-07T09:40:30;9.68;;;8.77;;
12129;SDS011;6128;59.340;18.040;2023-08-07T09:42:57;10.80;;;10.00;;
12129;SDS011;6128;59.340;18.040;2023-08-07T09:45:27;11.10;;;10.13;;
12129;SDS011;6128;59.340;18.040;2023-08-07T09:47:57;10.80;;;9.73;;
12129;SDS011;6128;59.340;18.040;2023-08-07T09:50:24;10.77;;;9.82;;
12129;SDS011;6128;59.340;18.040;2023-08-07T09:52:53;10.82;;;10.07;;
12129;SDS011;6128;59.340;18.040;2023-08-07T09:55:20;11.95;;;9.77;;
12129;SDS011;6128;59.340;18.040;2023-08-07T09:57:50;11.48;;;10.30;;
12129;SDS011;6128;59.340;18.040;2023-08-07T10:00:17;10.75;;;10.00;;
12129;SDS011;6128;59.340;18.040;2023-08-07T10:02:46;11.25;;;9.93;;
12129;SDS011;6128;59.340;18.040;2023-08-07T10:05:13;10.80;;;9.85;;
12129;SDS011;6128;59.340;18.040;2023-08-07T10:07:41;11.20;;;10.25;;
12129;SDS011;6128;59.340;18.040;2023-08-07T10:10:09;10.90;;;10.00;;
12129;SDS011;6128;59.340;18.040;2023-08-07T10:12:36;11.05;;;10.05;;
12129;SDS011;6128;59.340;18.040;2023-08-07T10:15:06;11.13;;;10.18;;
12129;SDS011;6128;59.340;18.040;2023-08-07T10:17:34;11.65;;;10.80;;
12129;SDS011;6128;59.340;18.040;2023-08-07T10:20:01;10.90;;;9.90;;
12129;SDS011;6128;59.340;18.040;2023-08-07T10:22:30;11.05;;;9.95;;
12129;SDS011;6128;59.340;18.040;2023-08-07T10:24:59;10.57;;;9.77;;
12129;SDS011;6128;59.340;18.040;2023-08-07T10:27:29;11.60;;;10.70;;
12129;SDS011;6128;59.340;18.040;2023-08-07T10:29:58;11.25;;;10.35;;
12129;SDS011;6128;59.340;18.040;2023-08-07T10:32:29;11.85;;;10.85;;
12129;SDS011;6128;59.340;18.040;2023-08-07T10:34:57;12.07;;;10.68;;
12129;SDS011;6128;59.340;18.040;2023-08-07T10:37:38;12.50;;;11.02;;
12129;SDS011;6128;59.340;18.040;2023-08-07T10:40:07;10.85;;;9.95;;
12129;SDS011;6128;59.340;18.040;2023-08-07T10:42:52;10.98;;;10.00;;
12129;SDS011;6128;59.340;18.040;2023-08-07T10:45:22;11.23;;;10.23;;
12129;SDS011;6128;59.340;18.040;2023-08-07T10:50:51;11.82;;;10.75;;
12129;SDS011;6128;59.340;18.040;2023-08-07T10:53:29;10.93;;;9.93;;
12129;SDS011;6128;59.340;18.040;2023-08-07T10:55:57;11.38;;;10.40;;
12129;SDS011;6128;59.340;18.040;2023-08-07T10:58:24;11.63;;;10.70;;
12129;SDS011;6128;59.340;18.040;2023-08-07T11:01:14;10.82;;;9.93;;
12129;SDS011;6128;59.340;18.040;2023-08-07T11:03:45;11.10;;;10.20;;
12129;SDS011;6128;59.340;18.040;2023-08-07T11:06:14;11.23;;;10.27;;
12129;SDS011;6128;59.340;18.040;2023-08-07T11:08:51;12.02;;;10.95;;
12129;SDS011;6128;59.340;18.040;2023-08-07T11:11:18;12.95;;;11.38;;
12129;SDS011;6128;59.340;18.040;2023-08-07T11:13:46;11.68;;;10.77;;
12129;SDS011;6128;59.340;18.040;2023-08-07T11:16:13;11.80;;;10.60;;
12129;SDS011;6128;59.340;18.040;2023-08-07T11:18:40;11.38;;;10.40;;
12129;SDS011;6128;59.340;18.040;2023-08-07T11:21:13;12.05;;;11.13;;
12129;SDS011;6128;59.340;18.040;2023-08-07T11:23:43;10.95;;;9.95;;
12129;SDS011;6128;59.340;18.040;2023-08-07T11:26:11;11.95;;;10.23;;
12129;SDS011;6128;59.340;18.040;2023-08-07T11:28:39;11.32;;;10.43;;
12129;SDS011;6128;59.340;18.040;2023-08-07T11:31:06;10.85;;;9.95;;
12129;SDS011;6128;59.340;18.040;2023-08-07T11:33:35;11.27;;;10.38;;
12129;SDS011;6128;59.340;18.040;2023-08-07T11:36:03;12.88;;;11.77;;
12129;SDS011;6128;59.340;18.040;2023-08-07T11:38:38;10.55;;;9.80;;
12129;SDS011;6128;59.340;18.040;2023-08-07T11:41:08;10.57;;;9.68;;
12129;SDS011;6128;59.340;18.040;2023-08-07T11:43:37;10.48;;;9.70;;
12129;SDS011;6128;59.340;18.040;2023-08-07T11:46:05;10.50;;;9.60;;
12129;SDS011;6128;59.340;18.040;2023-08-07T11:48:34;10.00;;;9.02;;
12129;SDS011;6128;59.340;18.040;2023-08-07T11:51:03;10.43;;;9.45;;
12129;SDS011;6128;59.340;18.040;2023-08-07T11:53:31;15.07;;;13.73;;
12129;SDS011;6128;59.340;18.040;2023-08-07T11:56:01;11.40;;;10.40;;
12129;SDS011;6128;59.340;18.040;2023-08-07T11:58:33;10.32;;;9.40;;
12129;SDS011;6128;59.340;18.040;2023-08-07T12:01:05;11.00;;;10.00;;
12129;SDS011;6128;59.340;18.040;2023-08-07T12:03:34;10.63;;;9.57;;
12129;SDS011;6128;59.340;18.040;2023-08-07T12:06:04;10.82;;;9.82;;
12129;SDS011;6128;59.340;18.040;2023-08-07T12:08:32;10.93;;;10.05;;
12129;SDS011;6128;59.340;18.040;2023-08-07T12:11:04;11.10;;;10.18;;
12129;SDS011;6128;59.340;18.040;2023-08-07T12:13:32;11.50;;;9.95;;
12129;SDS011;6128;59.340;18.040;2023-08-07T12:16:00;11.30;;;10.45;;
12129;SDS011;6128;59.340;18.040;2023-08-07T12:18:29;10.95;;;9.95;;
12129;SDS011;6128;59.340;18.040;2023-08-07T12:20:58;10.77;;;9.85;;
12129;SDS011;6128;59.340;18.040;2023-08-07T12:23:25;10.30;;;9.43;;
12129;SDS011;6128;59.340;18.040;2023-08-07T12:25:53;10.38;;;9.48;;
12129;SDS011;6128;59.340;18.040;2023-08-07T12:28:22;9.98;;;9.25;;
12129;SDS011;6128;59.340;18.040;2023-08-07T12:30:49;9.68;;;8.75;;
12129;SDS011;6128;59.340;18.040;2023-08-07T12:33:18;10.57;;;9.18;;
12129;SDS011;6128;59.340;18.040;2023-08-07T12:35:45;9.90;;;8.90;;
12129;SDS011;6128;59.340;18.040;2023-08-07T12:38:13;9.40;;;8.60;;
12129;SDS011;6128;59.340;18.040;2023-08-07T12:40:40;9.02;;;8.32;;
12129;SDS011;6128;59.340;18.040;2023-08-07T12:43:07;9.98;;;9.10;;
12129;SDS011;6128;59.340;18.040;2023-08-07T12:45:36;9.35;;;8.45;;
12129;SDS011;6128;59.340;18.040;2023-08-07T12:48:03;11.05;;;9.35;;
12129;SDS011;6128;59.340;18.040;2023-08-07T12:50:31;12.80;;;11.77;;
12129;SDS011;6128;59.340;18.040;2023-08-07T12:52:58;9.70;;;8.80;;
12129;SDS011;6128;59.340;18.040;2023-08-07T12:55:25;9.13;;;8.52;;
12129;SDS011;6128;59.340;18.040;2023-08-07T12:57:53;9.38;;;8.68;;
12129;SDS011;6128;59.340;18.040;2023-08-07T13:00:21;10.73;;;9.75;;
12129;SDS011;6128;59.340;18.040;2023-08-07T13:02:50;9.48;;;8.70;;
12129;SDS011;6128;59.340;18.040;2023-08-07T13:05:17;9.20;;;8.43;;
12129;SDS011;6128;59.340;18.040;2023-08-07T13:07:46;9.70;;;9.00;;
12129;SDS011;6128;59.340;18.040;2023-08-07T13:10:14;9.57;;;8.90;;
12129;SDS011;6128;59.340;18.040;2023-08-07T13:12:43;9.75;;;8.82;;
12129;SDS011;6128;59.340;18.040;2023-08-07T13:15:12;10.52;;;9.23;;
12129;SDS011;6128;59.340;18.040;2023-08-07T13:17:40;8.57;;;7.88;;
12129;SDS011;6128;59.340;18.040;2023-08-07T13:20:09;8.27;;;7.57;;
12129;SDS011;6128;59.340;18.040;2023-08-07T13:22:38;7.22;;;6.72;;
12129;SDS011;6128;59.340;18.040;2023-08-07T13:25:05;7.35;;;6.93;;
12129;SDS011;6128;59.340;18.040;2023-08-07T13:27:33;7.43;;;6.93;;
12129;SDS011;6128;59.340;18.040;2023-08-07T13:30:01;6.65;;;6.15;;
12129;SDS011;6128;59.340;18.040;2023-08-07T13:32:29;7.50;;;6.80;;
12129;SDS011;6128;59.340;18.040;2023-08-07T13:34:57;6.60;;;6.10;;
12129;SDS011;6128;59.340;18.040;2023-08-07T13:37:25;6.38;;;5.78;;
12129;SDS011;6128;59.340;18.040;2023-08-07T13:39:52;7.25;;;6.68;;
12129;SDS011;6128;59.340;18.040;2023-08-07T13:42:23;7.07;;;6.47;;
12129;SDS011;6128;59.340;18.040;2023-08-07T13:44:51;6.60;;;6.15;;
12129;SDS011;6128;59.340;18.040;2023-08-07T13:47:18;6.68;;;6.10;;
12129;SDS011;6128;59.340;18.040;2023-08-07T13:49:45;6.43;;;5.93;;
12129;SDS011;6128;59.340;18.040;2023-08-07T13:52:13;7.90;;;6.57;;
12129;SDS011;6128;59.340;18.040;2023-08-07T13:54:41;6.53;;;6.13;;
12129;SDS011;6128;59.340;18.040;2023-08-07T13:57:08;6.90;;;6.30;;
12129;SDS011;6128;59.340;18.040;2023-08-07T13:59:35;6.50;;;6.00;;
12129;SDS011;6128;59.340;18.040;2023-08-07T14:02:02;6.95;;;6.40;;
12129;SDS011;6128;59.340;18.040;2023-08-07T14:04:31;7.63;;;7.03;;
12129;SDS011;6128;59.340;18.040;2023-08-07T14:06:58;7.95;;;7.32;;
12129;SDS011;6128;59.340;18.040;2023-08-07T14:09:26;8.50;;;7.88;;
12129;SDS011;6128;59.340;18.040;2023-08-07T14:11:54;8.60;;;8.00;;
12129;SDS011;6128;59.340;18.040;2023-08-07T14:14:22;8.68;;;8.18;;
12129;SDS011;6128;59.340;18.040;2023-08-07T14:16:49;10.48;;;9.65;;
12129;SDS011;6128;59.340;18.040;2023-08-07T14:19:16;9.32;;;8.40;;
12129;SDS011;6128;59.340;18.040;2023-08-07T14:21:43;8.63;;;7.95;;
12129;SDS011;6128;59.340;18.040;2023-08-07T14:24:10;8.18;;;7.68;;
12129;SDS011;6128;59.340;18.040;2023-08-07T14:26:38;8.73;;;8.00;;
12129;SDS011;6128;59.340;18.040;2023-08-07T14:29:06;8.63;;;8.02;;
12129;SDS011;6128;59.340;18.040;2023-08-07T14:31:33;8.07;;;7.40;;
12129;SDS011;6128;59.340;18.040;2023-08-07T14:34:00;7.95;;;7.35;;
12129;SDS011;6128;59.340;18.040;2023-08-07T14:36:27;8.68;;;8.00;;
12129;SDS011;6128;59.340;18.040;2023-08-07T14:38:54;8.88;;;8.23;;